sensor_id;sensor_type;location;lat;lon;timestamp;P1;durP1;ratioP1;P2;durP2;ratioP2
55483;SDS011;41345;51.704;5.146;2023-08-08T00:03:12;129.15;;;123.75;;
55483;SDS011;41345;51.704;5.146;2023-08-08T00:08:13;136.00;;;130.38;;
55483;SDS011;41345;51.704;5.146;2023-08-08T00:13:13;112.75;;;107.78;;
55483;SDS011;41345;51.704;5.146;2023-08-08T00:18:13;186.10;;;178.15;;
55483;SDS011;41345;51.704;5.146;2023-08-08T00:23:14;141.40;;;135.45;;
55483;SDS011;41345;51.704;5.146;2023-08-08T00:28:14;126.38;;;120.88;;
55483;SDS011;41345;51.704;5.146;2023-08-08T00:33:15;153.23;;;146.53;;
55483;SDS011;41345;51.704;5.146;2023-08-08T00:38:16;214.15;;;205.15;;
55483;SDS011;41345;51.704;5.146;2023-08-08T00:43:18;144.20;;;137.88;;
55483;SDS011;41345;51.704;5.146;2023-08-08T00:48:18;153.00;;;146.05;;
55483;SDS011;41345;51.704;5.146;2023-08-08T00:53:19;236.20;;;226.68;;
55483;SDS011;41345;51.704;5.146;2023-08-08T00:58:20;338.48;;;324.80;;
55483;SDS011;41345;51.704;5.146;2023-08-08T01:03:20;406.70;;;389.95;;
55483;SDS011;41345;51.704;5.146;2023-08-08T01:08:22;459.02;;;438.27;;
55483;SDS011;41345;51.704;5.146;2023-08-08T01:18:25;490.48;;;467.98;;
55483;SDS011;41345;51.704;5.146;2023-08-08T01:23:32;497.20;;;472.90;;
55483;SDS011;41345;51.704;5.146;2023-08-08T01:28:33;495.17;;;470.30;;
55483;SDS011;41345;51.704;5.146;2023-08-08T01:33:34;490.63;;;465.48;;
55483;SDS011;41345;51.704;5.146;2023-08-08T01:38:36;508.17;;;481.03;;
55483;SDS011;41345;51.704;5.146;2023-08-08T01:43:38;506.63;;;479.58;;
55483;SDS011;41345;51.704;5.146;2023-08-08T01:48:39;494.15;;;468.25;;
55483;SDS011;41345;51.704;5.146;2023-08-08T01:53:40;497.23;;;470.33;;
55483;SDS011;41345;51.704;5.146;2023-08-08T01:58:40;503.43;;;476.43;;
55483;SDS011;41345;51.704;5.146;2023-08-08T02:03:40;502.83;;;476.25;;
55483;SDS011;41345;51.704;5.146;2023-08-08T02:08:41;502.27;;;474.33;;
55483;SDS011;41345;51.704;5.146;2023-08-08T02:13:41;494.67;;;465.93;;
55483;SDS011;41345;51.704;5.146;2023-08-08T02:18:41;507.92;;;480.08;;
55483;SDS011;41345;51.704;5.146;2023-08-08T02:23:42;511.33;;;482.10;;
55483;SDS011;41345;51.704;5.146;2023-08-08T02:28:42;502.27;;;472.20;;
55483;SDS011;41345;51.704;5.146;2023-08-08T02:33:43;511.80;;;480.15;;
55483;SDS011;41345;51.704;5.146;2023-08-08T02:38:44;510.13;;;478.03;;
55483;SDS011;41345;51.704;5.146;2023-08-08T02:43:44;508.08;;;475.23;;
55483;SDS011;41345;51.704;5.146;2023-08-08T02:48:45;496.73;;;463.10;;
55483;SDS011;41345;51.704;5.146;2023-08-08T02:53:45;505.80;;;473.23;;
55483;SDS011;41345;51.704;5.146;2023-08-08T02:58:45;505.73;;;471.70;;
55483;SDS011;41345;51.704;5.146;2023-08-08T03:03:46;500.30;;;465.57;;
55483;SDS011;41345;51.704;5.146;2023-08-08T03:08:46;508.55;;;474.02;;
55483;SDS011;41345;51.704;5.146;2023-08-08T03:13:46;494.58;;;458.48;;
55483;SDS011;41345;51.704;5.146;2023-08-08T03:18:47;493.67;;;456.85;;
55483;SDS011;41345;51.704;5.146;2023-08-08T03:23:47;495.38;;;460.67;;
55483;SDS011;41345;51.704;5.146;2023-08-08T03:28:48;492.30;;;457.00;;
55483;SDS011;41345;51.704;5.146;2023-08-08T03:33:50;492.85;;;456.75;;
55483;SDS011;41345;51.704;5.146;2023-08-08T03:38:50;488.33;;;452.40;;
55483;SDS011;41345;51.704;5.146;2023-08-08T03:43:51;494.17;;;460.23;;
55483;SDS011;41345;51.704;5.146;2023-08-08T03:48:51;489.50;;;453.35;;
55483;SDS011;41345;51.704;5.146;2023-08-08T03:53:51;487.90;;;452.20;;
55483;SDS011;41345;51.704;5.146;2023-08-08T03:58:52;485.33;;;448.40;;
55483;SDS011;41345;51.704;5.146;2023-08-08T04:03:52;482.10;;;447.20;;
55483;SDS011;41345;51.704;5.146;2023-08-08T04:08:53;482.88;;;445.92;;
55483;SDS011;41345;51.704;5.146;2023-08-08T04:13:53;487.85;;;451.50;;
55483;SDS011;41345;51.704;5.146;2023-08-08T04:18:53;492.05;;;453.98;;
55483;SDS011;41345;51.704;5.146;2023-08-08T04:23:54;493.38;;;455.35;;
55483;SDS011;41345;51.704;5.146;2023-08-08T04:28:54;536.15;;;495.92;;
55483;SDS011;41345;51.704;5.146;2023-08-08T04:33:55;527.88;;;487.00;;
55483;SDS011;41345;51.704;5.146;2023-08-08T04:39:00;526.38;;;485.20;;
55483;SDS011;41345;51.704;5.146;2023-08-08T04:44:00;531.03;;;489.43;;
55483;SDS011;41345;51.704;5.146;2023-08-08T04:49:00;530.70;;;489.50;;
55483;SDS011;41345;51.704;5.146;2023-08-08T04:54:00;519.80;;;480.23;;
55483;SDS011;41345;51.704;5.146;2023-08-08T04:59:01;518.47;;;478.73;;
55483;SDS011;41345;51.704;5.146;2023-08-08T05:04:01;505.77;;;466.95;;
55483;SDS011;41345;51.704;5.146;2023-08-08T05:09:02;515.90;;;477.02;;
55483;SDS011;41345;51.704;5.146;2023-08-08T05:14:03;517.53;;;479.90;;
55483;SDS011;41345;51.704;5.146;2023-08-08T05:19:03;505.40;;;468.93;;
55483;SDS011;41345;51.704;5.146;2023-08-08T05:24:04;502.45;;;465.50;;
55483;SDS011;41345;51.704;5.146;2023-08-08T05:29:04;509.17;;;473.00;;
55483;SDS011;41345;51.704;5.146;2023-08-08T05:34:04;506.70;;;470.45;;
55483;SDS011;41345;51.704;5.146;2023-08-08T05:39:05;504.48;;;470.52;;
55483;SDS011;41345;51.704;5.146;2023-08-08T05:44:06;504.55;;;470.77;;
55483;SDS011;41345;51.704;5.146;2023-08-08T05:49:07;467.65;;;436.02;;
55483;SDS011;41345;51.704;5.146;2023-08-08T05:54:07;482.83;;;452.87;;
55483;SDS011;41345;51.704;5.146;2023-08-08T05:59:07;489.02;;;460.83;;
55483;SDS011;41345;51.704;5.146;2023-08-08T06:04:08;447.95;;;421.90;;
55483;SDS011;41345;51.704;5.146;2023-08-08T06:09:09;504.53;;;476.10;;
55483;SDS011;41345;51.704;5.146;2023-08-08T06:14:09;447.20;;;420.52;;
55483;SDS011;41345;51.704;5.146;2023-08-08T06:19:09;484.02;;;458.08;;
55483;SDS011;41345;51.704;5.146;2023-08-08T06:24:10;484.58;;;459.08;;
55483;SDS011;41345;51.704;5.146;2023-08-08T06:29:10;454.63;;;432.90;;
55483;SDS011;41345;51.704;5.146;2023-08-08T06:34:12;385.77;;;366.67;;
55483;SDS011;41345;51.704;5.146;2023-08-08T06:39:13;426.67;;;406.63;;
55483;SDS011;41345;51.704;5.146;2023-08-08T06:44:13;363.40;;;347.42;;
55483;SDS011;41345;51.704;5.146;2023-08-08T06:49:13;393.10;;;374.70;;
55483;SDS011;41345;51.704;5.146;2023-08-08T06:54:14;390.17;;;372.00;;
55483;SDS011;41345;51.704;5.146;2023-08-08T06:59:14;370.73;;;353.92;;
55483;SDS011;41345;51.704;5.146;2023-08-08T07:04:14;356.20;;;340.77;;
55483;SDS011;41345;51.704;5.146;2023-08-08T07:09:15;364.20;;;348.10;;
55483;SDS011;41345;51.704;5.146;2023-08-08T07:14:15;245.73;;;235.40;;
55483;SDS011;41345;51.704;5.146;2023-08-08T07:19:15;255.13;;;244.52;;
55483;SDS011;41345;51.704;5.146;2023-08-08T07:24:16;160.20;;;153.38;;
55483;SDS011;41345;51.704;5.146;2023-08-08T07:29:16;166.50;;;159.13;;
55483;SDS011;41345;51.704;5.146;2023-08-08T07:34:17;138.63;;;132.50;;
55483;SDS011;41345;51.704;5.146;2023-08-08T07:39:17;101.03;;;96.23;;
55483;SDS011;41345;51.704;5.146;2023-08-08T07:44:18;98.82;;;94.47;;
55483;SDS011;41345;51.704;5.146;2023-08-08T07:49:18;51.15;;;48.45;;
55483;SDS011;41345;51.704;5.146;2023-08-08T07:54:18;56.77;;;53.70;;
55483;SDS011;41345;51.704;5.146;2023-08-08T07:59:19;48.13;;;45.30;;
55483;SDS011;41345;51.704;5.146;2023-08-08T08:04:19;12.00;;;11.00;;
55483;SDS011;41345;51.704;5.146;2023-08-08T08:09:19;10.52;;;8.02;;
55483;SDS011;41345;51.704;5.146;2023-08-08T08:14:20;13.33;;;12.13;;
55483;SDS011;41345;51.704;5.146;2023-08-08T08:19:21;10.48;;;8.35;;
55483;SDS011;41345;51.704;5.146;2023-08-08T08:24:21;6.13;;;3.58;;
55483;SDS011;41345;51.704;5.146;2023-08-08T08:29:23;10.00;;;5.05;;
55483;SDS011;41345;51.704;5.146;2023-08-08T08:34:23;8.63;;;3.53;;
55483;SDS011;41345;51.704;5.146;2023-08-08T08:39:24;4.18;;;2.60;;
55483;SDS011;41345;51.704;5.146;2023-08-08T08:44:24;7.05;;;2.10;;
55483;SDS011;41345;51.704;5.146;2023-08-08T08:49:26;3.50;;;1.20;;
55483;SDS011;41345;51.704;5.146;2023-08-08T08:54:27;3.78;;;1.25;;
55483;SDS011;41345;51.704;5.146;2023-08-08T08:59:29;3.85;;;1.25;;
55483;SDS011;41345;51.704;5.146;2023-08-08T09:04:30;6.63;;;1.40;;
55483;SDS011;41345;51.704;5.146;2023-08-08T09:09:34;7.45;;;1.30;;
55483;SDS011;41345;51.704;5.146;2023-08-08T09:14:34;5.43;;;1.23;;
55483;SDS011;41345;51.704;5.146;2023-08-08T09:19:42;4.32;;;1.60;;
55483;SDS011;41345;51.704;5.146;2023-08-08T09:24:44;6.05;;;1.90;;
55483;SDS011;41345;51.704;5.146;2023-08-08T09:29:46;5.70;;;1.50;;
55483;SDS011;41345;51.704;5.146;2023-08-08T09:34:46;7.03;;;1.73;;
55483;SDS011;41345;51.704;5.146;2023-08-08T09:39:55;4.03;;;1.70;;
55483;SDS011;41345;51.704;5.146;2023-08-08T09:44:58;5.75;;;1.40;;
55483;SDS011;41345;51.704;5.146;2023-08-08T09:49:59;5.10;;;1.15;;
55483;SDS011;41345;51.704;5.146;2023-08-08T09:55:00;4.07;;;1.30;;
55483;SDS011;41345;51.704;5.146;2023-08-08T10:00:01;6.10;;;1.57;;
55483;SDS011;41345;51.704;5.146;2023-08-08T10:05:05;4.88;;;1.27;;
55483;SDS011;41345;51.704;5.146;2023-08-08T10:10:06;7.43;;;1.50;;
55483;SDS011;41345;51.704;5.146;2023-08-08T10:15:07;4.85;;;1.15;;
55483;SDS011;41345;51.704;5.146;2023-08-08T10:20:08;7.20;;;1.75;;
55483;SDS011;41345;51.704;5.146;2023-08-08T10:25:24;9.93;;;1.40;;
55483;SDS011;41345;51.704;5.146;2023-08-08T10:30:25;3.87;;;1.40;;
55483;SDS011;41345;51.704;5.146;2023-08-08T10:35:34;5.17;;;1.20;;
55483;SDS011;41345;51.704;5.146;2023-08-08T10:40:35;3.50;;;1.20;;
55483;SDS011;41345;51.704;5.146;2023-08-08T10:45:36;3.30;;;1.30;;
55483;SDS011;41345;51.704;5.146;2023-08-08T10:50:39;5.40;;;1.30;;
55483;SDS011;41345;51.704;5.146;2023-08-08T11:00:41;3.42;;;1.20;;
55483;SDS011;41345;51.704;5.146;2023-08-08T11:05:41;6.30;;;1.10;;
55483;SDS011;41345;51.704;5.146;2023-08-08T11:10:44;6.00;;;1.57;;
55483;SDS011;41345;51.704;5.146;2023-08-08T11:15:45;4.03;;;1.20;;
55483;SDS011;41345;51.704;5.146;2023-08-08T11:20:45;3.60;;;1.23;;
55483;SDS011;41345;51.704;5.146;2023-08-08T11:25:46;4.10;;;1.10;;
55483;SDS011;41345;51.704;5.146;2023-08-08T11:30:46;3.75;;;1.17;;
55483;SDS011;41345;51.704;5.146;2023-08-08T11:35:47;3.42;;;1.02;;
55483;SDS011;41345;51.704;5.146;2023-08-08T11:40:49;5.75;;;0.93;;
55483;SDS011;41345;51.704;5.146;2023-08-08T11:45:49;2.58;;;0.95;;
55483;SDS011;41345;51.704;5.146;2023-08-08T11:50:52;2.53;;;0.88;;
55483;SDS011;41345;51.704;5.146;2023-08-08T11:55:53;4.90;;;0.80;;
55483;SDS011;41345;51.704;5.146;2023-08-08T12:00:53;1.65;;;0.80;;
55483;SDS011;41345;51.704;5.146;2023-08-08T12:05:54;2.92;;;0.68;;
55483;SDS011;41345;51.704;5.146;2023-08-08T12:10:55;2.50;;;0.80;;
55483;SDS011;41345;51.704;5.146;2023-08-08T12:15:58;6.07;;;1.00;;
55483;SDS011;41345;51.704;5.146;2023-08-08T12:20:59;3.17;;;0.80;;
55483;SDS011;41345;51.704;5.146;2023-08-08T12:26:02;2.70;;;0.70;;
55483;SDS011;41345;51.704;5.146;2023-08-08T12:31:03;5.50;;;0.82;;
55483;SDS011;41345;51.704;5.146;2023-08-08T12:36:03;3.20;;;0.90;;
55483;SDS011;41345;51.704;5.146;2023-08-08T12:41:04;0.85;;;0.52;;
55483;SDS011;41345;51.704;5.146;2023-08-08T12:46:04;2.08;;;0.88;;
55483;SDS011;41345;51.704;5.146;2023-08-08T12:51:04;4.63;;;1.50;;
55483;SDS011;41345;51.704;5.146;2023-08-08T12:56:07;1.52;;;0.65;;
55483;SDS011;41345;51.704;5.146;2023-08-08T13:01:07;2.07;;;0.80;;
55483;SDS011;41345;51.704;5.146;2023-08-08T13:06:08;3.95;;;1.00;;
55483;SDS011;41345;51.704;5.146;2023-08-08T13:11:11;4.33;;;0.87;;
55483;SDS011;41345;51.704;5.146;2023-08-08T13:16:11;3.17;;;0.77;;
55483;SDS011;41345;51.704;5.146;2023-08-08T13:21:11;1.70;;;0.80;;
55483;SDS011;41345;51.704;5.146;2023-08-08T13:26:12;3.38;;;1.08;;
55483;SDS011;41345;51.704;5.146;2023-08-08T13:31:26;3.63;;;0.90;;
55483;SDS011;41345;51.704;5.146;2023-08-08T13:36:26;2.25;;;0.80;;
55483;SDS011;41345;51.704;5.146;2023-08-08T13:41:27;4.43;;;0.90;;
55483;SDS011;41345;51.704;5.146;2023-08-08T13:46:28;2.50;;;0.85;;
55483;SDS011;41345;51.704;5.146;2023-08-08T13:51:28;3.78;;;1.75;;
55483;SDS011;41345;51.704;5.146;2023-08-08T13:56:29;3.78;;;0.98;;
55483;SDS011;41345;51.704;5.146;2023-08-08T14:01:29;3.95;;;0.93;;
55483;SDS011;41345;51.704;5.146;2023-08-08T14:06:29;3.22;;;1.10;;
55483;SDS011;41345;51.704;5.146;2023-08-08T14:11:30;2.85;;;0.77;;
55483;SDS011;41345;51.704;5.146;2023-08-08T14:16:31;3.67;;;1.10;;
55483;SDS011;41345;51.704;5.146;2023-08-08T14:21:32;3.67;;;1.00;;
55483;SDS011;41345;51.704;5.146;2023-08-08T14:26:32;6.73;;;1.10;;
55483;SDS011;41345;51.704;5.146;2023-08-08T14:31:33;4.47;;;1.27;;
55483;SDS011;41345;51.704;5.146;2023-08-08T14:36:33;4.20;;;1.48;;
55483;SDS011;41345;51.704;5.146;2023-08-08T14:41:33;3.93;;;1.10;;
55483;SDS011;41345;51.704;5.146;2023-08-08T14:46:33;5.07;;;1.30;;
55483;SDS011;41345;51.704;5.146;2023-08-08T14:51:34;2.30;;;1.00;;
55483;SDS011;41345;51.704;5.146;2023-08-08T14:56:34;2.42;;;1.02;;
55483;SDS011;41345;51.704;5.146;2023-08-08T15:01:35;5.25;;;1.55;;
55483;SDS011;41345;51.704;5.146;2023-08-08T15:06:38;5.57;;;1.42;;
55483;SDS011;41345;51.704;5.146;2023-08-08T15:11:38;4.05;;;1.15;;
55483;SDS011;41345;51.704;5.146;2023-08-08T15:16:39;4.82;;;1.23;;
55483;SDS011;41345;51.704;5.146;2023-08-08T15:21:39;5.63;;;1.10;;
55483;SDS011;41345;51.704;5.146;2023-08-08T15:26:40;7.40;;;1.40;;
55483;SDS011;41345;51.704;5.146;2023-08-08T15:31:40;5.22;;;1.45;;
55483;SDS011;41345;51.704;5.146;2023-08-08T15:36:40;4.65;;;1.65;;
55483;SDS011;41345;51.704;5.146;2023-08-08T15:41:41;6.35;;;1.88;;
55483;SDS011;41345;51.704;5.146;2023-08-08T15:46:41;4.25;;;2.03;;
55483;SDS011;41345;51.704;5.146;2023-08-08T15:51:42;4.45;;;1.80;;
55483;SDS011;41345;51.704;5.146;2023-08-08T15:56:42;5.63;;;1.53;;
55483;SDS011;41345;51.704;5.146;2023-08-08T16:01:42;4.43;;;1.60;;
55483;SDS011;41345;51.704;5.146;2023-08-08T16:06:43;7.63;;;1.80;;
55483;SDS011;41345;51.704;5.146;2023-08-08T16:11:43;4.13;;;1.50;;
55483;SDS011;41345;51.704;5.146;2023-08-08T16:16:43;8.38;;;2.00;;
55483;SDS011;41345;51.704;5.146;2023-08-08T16:21:44;5.93;;;1.77;;
55483;SDS011;41345;51.704;5.146;2023-08-08T16:26:44;6.10;;;2.20;;
55483;SDS011;41345;51.704;5.146;2023-08-08T16:31:44;8.95;;;2.03;;
55483;SDS011;41345;51.704;5.146;2023-08-08T16:36:45;7.78;;;2.00;;
55483;SDS011;41345;51.704;5.146;2023-08-08T16:41:45;4.80;;;1.93;;
55483;SDS011;41345;51.704;5.146;2023-08-08T16:46:46;10.00;;;2.35;;
55483;SDS011;41345;51.704;5.146;2023-08-08T16:51:46;5.82;;;2.65;;
55483;SDS011;41345;51.704;5.146;2023-08-08T16:56:46;5.90;;;2.70;;
55483;SDS011;41345;51.704;5.146;2023-08-08T17:01:48;7.38;;;2.53;;
55483;SDS011;41345;51.704;5.146;2023-08-08T17:06:48;8.10;;;2.72;;
55483;SDS011;41345;51.704;5.146;2023-08-08T17:11:48;9.70;;;2.67;;
55483;SDS011;41345;51.704;5.146;2023-08-08T17:16:49;9.10;;;2.83;;
55483;SDS011;41345;51.704;5.146;2023-08-08T17:21:49;6.57;;;2.90;;
55483;SDS011;41345;51.704;5.146;2023-08-08T17:26:49;5.93;;;3.03;;
55483;SDS011;41345;51.704;5.146;2023-08-08T17:31:50;3.83;;;1.98;;
55483;SDS011;41345;51.704;5.146;2023-08-08T17:36:50;12.38;;;3.88;;
55483;SDS011;41345;51.704;5.146;2023-08-08T17:41:51;10.45;;;7.22;;
55483;SDS011;41345;51.704;5.146;2023-08-08T17:46:51;25.03;;;23.53;;
55483;SDS011;41345;51.704;5.146;2023-08-08T17:51:51;63.92;;;60.92;;
55483;SDS011;41345;51.704;5.146;2023-08-08T17:56:52;135.03;;;129.33;;
55483;SDS011;41345;51.704;5.146;2023-08-08T18:01:53;157.75;;;151.13;;
55483;SDS011;41345;51.704;5.146;2023-08-08T18:06:54;207.93;;;199.40;;
55483;SDS011;41345;51.704;5.146;2023-08-08T18:11:54;258.47;;;247.73;;
55483;SDS011;41345;51.704;5.146;2023-08-08T18:16:54;238.85;;;229.35;;
55483;SDS011;41345;51.704;5.146;2023-08-08T18:21:55;259.63;;;249.38;;
55483;SDS011;41345;51.704;5.146;2023-08-08T18:26:55;295.67;;;283.33;;
55483;SDS011;41345;51.704;5.146;2023-08-08T18:31:55;354.52;;;339.00;;
55483;SDS011;41345;51.704;5.146;2023-08-08T18:36:56;395.65;;;376.48;;
55483;SDS011;41345;51.704;5.146;2023-08-08T18:41:56;411.80;;;389.40;;
55483;SDS011;41345;51.704;5.146;2023-08-08T18:46:56;437.50;;;413.45;;
55483;SDS011;41345;51.704;5.146;2023-08-08T18:51:57;431.33;;;406.50;;
55483;SDS011;41345;51.704;5.146;2023-08-08T18:56:57;443.75;;;418.58;;
55483;SDS011;41345;51.704;5.146;2023-08-08T19:01:57;442.90;;;415.52;;
55483;SDS011;41345;51.704;5.146;2023-08-08T19:06:58;470.67;;;441.65;;
55483;SDS011;41345;51.704;5.146;2023-08-08T19:11:59;452.42;;;421.65;;
55483;SDS011;41345;51.704;5.146;2023-08-08T19:16:59;453.75;;;420.08;;
55483;SDS011;41345;51.704;5.146;2023-08-08T19:21:59;470.80;;;437.17;;
55483;SDS011;41345;51.704;5.146;2023-08-08T19:27:00;477.13;;;442.27;;
55483;SDS011;41345;51.704;5.146;2023-08-08T19:32:00;477.90;;;442.55;;
55483;SDS011;41345;51.704;5.146;2023-08-08T19:37:00;470.00;;;435.20;;
55483;SDS011;41345;51.704;5.146;2023-08-08T19:42:01;483.98;;;446.70;;
55483;SDS011;41345;51.704;5.146;2023-08-08T19:47:01;513.42;;;477.70;;
55483;SDS011;41345;51.704;5.146;2023-08-08T19:52:02;493.48;;;454.42;;
55483;SDS011;41345;51.704;5.146;2023-08-08T19:57:02;488.10;;;449.90;;
55483;SDS011;41345;51.704;5.146;2023-08-08T20:02:03;491.13;;;450.25;;
55483;SDS011;41345;51.704;5.146;2023-08-08T20:07:04;505.75;;;463.13;;
55483;SDS011;41345;51.704;5.146;2023-08-08T20:12:05;517.38;;;475.23;;
55483;SDS011;41345;51.704;5.146;2023-08-08T20:17:05;501.25;;;459.63;;
55483;SDS011;41345;51.704;5.146;2023-08-08T20:22:05;508.73;;;466.25;;
55483;SDS011;41345;51.704;5.146;2023-08-08T20:27:06;534.83;;;491.27;;
55483;SDS011;41345;51.704;5.146;2023-08-08T20:32:06;519.03;;;477.10;;
55483;SDS011;41345;51.704;5.146;2023-08-08T20:37:07;515.80;;;472.98;;
55483;SDS011;41345;51.704;5.146;2023-08-08T20:42:07;499.83;;;458.20;;
55483;SDS011;41345;51.704;5.146;2023-08-08T20:47:08;499.55;;;459.35;;
55483;SDS011;41345;51.704;5.146;2023-08-08T20:52:08;502.90;;;463.20;;
55483;SDS011;41345;51.704;5.146;2023-08-08T20:57:08;506.10;;;465.03;;
55483;SDS011;41345;51.704;5.146;2023-08-08T21:02:09;522.30;;;479.77;;
55483;SDS011;41345;51.704;5.146;2023-08-08T21:07:09;565.58;;;520.90;;
55483;SDS011;41345;51.704;5.146;2023-08-08T21:12:12;570.00;;;524.03;;
55483;SDS011;41345;51.704;5.146;2023-08-08T21:17:13;588.22;;;541.65;;
55483;SDS011;41345;51.704;5.146;2023-08-08T21:22:14;565.95;;;519.20;;
55483;SDS011;41345;51.704;5.146;2023-08-08T21:27:14;584.47;;;537.08;;
55483;SDS011;41345;51.704;5.146;2023-08-08T21:32:14;586.53;;;539.22;;
55483;SDS011;41345;51.704;5.146;2023-08-08T21:37:15;588.10;;;539.60;;
55483;SDS011;41345;51.704;5.146;2023-08-08T21:42:15;583.07;;;534.50;;
55483;SDS011;41345;51.704;5.146;2023-08-08T21:47:17;581.35;;;534.10;;
55483;SDS011;41345;51.704;5.146;2023-08-08T21:52:20;582.38;;;535.05;;
55483;SDS011;41345;51.704;5.146;2023-08-08T21:57:20;569.33;;;522.33;;
55483;SDS011;41345;51.704;5.146;2023-08-08T22:02:20;583.83;;;536.13;;
55483;SDS011;41345;51.704;5.146;2023-08-08T22:07:21;573.40;;;526.55;;
55483;SDS011;41345;51.704;5.146;2023-08-08T22:12:22;544.10;;;498.17;;
55483;SDS011;41345;51.704;5.146;2023-08-08T22:17:22;535.00;;;489.05;;
55483;SDS011;41345;51.704;5.146;2023-08-08T22:22:23;535.17;;;489.10;;
55483;SDS011;41345;51.704;5.146;2023-08-08T22:27:23;555.97;;;508.45;;
55483;SDS011;41345;51.704;5.146;2023-08-08T22:32:23;548.42;;;501.65;;
55483;SDS011;41345;51.704;5.146;2023-08-08T22:37:24;522.83;;;476.80;;
55483;SDS011;41345;51.704;5.146;2023-08-08T22:42:24;536.17;;;489.88;;
55483;SDS011;41345;51.704;5.146;2023-08-08T22:47:24;523.75;;;477.17;;
55483;SDS011;41345;51.704;5.146;2023-08-08T22:52:25;554.08;;;507.25;;
55483;SDS011;41345;51.704;5.146;2023-08-08T22:57:25;553.85;;;506.15;;
55483;SDS011;41345;51.704;5.146;2023-08-08T23:02:25;554.60;;;507.10;;
55483;SDS011;41345;51.704;5.146;2023-08-08T23:07:26;558.63;;;511.33;;
55483;SDS011;41345;51.704;5.146;2023-08-08T23:12:26;561.53;;;513.43;;
55483;SDS011;41345;51.704;5.146;2023-08-08T23:17:26;586.63;;;538.08;;
55483;SDS011;41345;51.704;5.146;2023-08-08T23:22:28;564.50;;;516.65;;
55483;SDS011;41345;51.704;5.146;2023-08-08T23:27:28;579.10;;;530.47;;
55483;SDS011;41345;51.704;5.146;2023-08-08T23:32:28;600.30;;;551.00;;
55483;SDS011;41345;51.704;5.146;2023-08-08T23:37:29;611.63;;;562.43;;
55483;SDS011;41345;51.704;5.146;2023-08-08T23:42:29;611.92;;;562.47;;
55483;SDS011;41345;51.704;5.146;2023-08-08T23:47:29;606.17;;;556.40;;
55483;SDS011;41345;51.704;5.146;2023-08-08T23:52:30;621.23;;;571.27;;
55483;SDS011;41345;51.704;5.146;2023-08-08T23:57:30;626.97;;;577.17;;
